Time;durP1;ratioP1;P1;durP2;ratioP2;P2;SDS_P1;SDS_P2;PMS_P1;PMS_P2;Temp;Humidity;BMP_temperature;BMP_pressure;BME280_temperature;BME280_humidity;BME280_pressure;Samples;Min_cycle;Max_cycle;Signal;HPM_P1;HPM_P2
2022/05/15 00:00:52;;;;;;;7.45;4.15;;;;;;;8.13;90.02;98829.94;2643083;27;20136;-77
2022/05/15 00:02:08;;;;;;;7.80;4.35;;;;;;;8.19;89.70;98828.13;2644114;27;20104;-77
2022/05/15 00:03:25;;;;;;;5.28;4.07;;;;;;;8.17;90.47;98814.25;2643057;27;20601;-77
2022/05/15 00:04:40;;;;;;;6.65;4.00;;;;;;;7.99;90.24;98820.53;2642552;27;20595;-76
2022/05/15 00:05:59;;;;;;;6.53;4.38;;;;;;;7.84;89.89;98823.31;2643867;27;20067;-76
2022/05/15 00:07:15;;;;;;;8.32;3.90;;;;;;;7.74;89.77;98820.78;2642619;27;20737;-76
2022/05/15 00:08:33;;;;;;;8.32;4.50;;;;;;;7.74;90.93;98827.72;2641273;27;20063;-77
2022/05/15 00:09:49;;;;;;;8.23;4.03;;;;;;;7.76;91.48;98823.38;2642639;27;20051;-77
2022/05/15 00:11:06;;;;;;;6.18;4.15;;;;;;;7.76;91.06;98818.19;2641075;27;20566;-76
2022/05/15 00:12:22;;;;;;;6.97;3.90;;;;;;;7.82;91.22;98819.81;2644257;27;20047;-78
2022/05/15 00:13:39;;;;;;;7.18;4.05;;;;;;;7.73;92.07;98816.44;2641000;27;20062;-81
2022/05/15 00:14:54;;;;;;;6.32;4.30;;;;;;;7.74;92.52;98826.00;2641586;27;20932;-78
2022/05/15 00:16:10;;;;;;;6.47;3.70;;;;;;;7.81;93.06;98823.31;2644229;27;20075;-76
2022/05/15 00:17:26;;;;;;;5.18;3.60;;;;;;;7.82;92.40;98818.09;2642889;27;20195;-76
2022/05/15 00:18:43;;;;;;;5.65;4.15;;;;;;;7.86;92.53;98824.16;2642824;27;20059;-78
2022/05/15 00:19:58;;;;;;;7.70;4.00;;;;;;;7.86;92.36;98826.75;2643727;27;20078;-78
2022/05/15 00:21:14;;;;;;;8.30;4.13;;;;;;;7.83;92.18;98818.97;2641975;27;20485;-78
2022/05/15 00:22:34;;;;;;;4.97;3.50;;;;;;;7.81;92.12;98823.31;2642014;27;20054;-77
2022/05/15 00:23:50;;;;;;;7.00;3.80;;;;;;;7.81;91.29;98826.81;2643119;27;20329;-78
2022/05/15 00:25:06;;;;;;;6.07;3.90;;;;;;;7.82;90.03;98825.03;2640789;27;20067;-76
2022/05/15 00:26:22;;;;;;;7.00;4.20;;;;;;;7.83;90.23;98826.78;2640900;27;20678;-75
2022/05/15 00:27:37;;;;;;;7.57;4.20;;;;;;;7.82;90.33;98827.66;2644512;27;20048;-75
2022/05/15 00:28:53;;;;;;;5.82;3.97;;;;;;;7.86;90.51;98826.75;2642136;27;20150;-77
2022/05/15 00:30:09;;;;;;;5.82;3.80;;;;;;;7.88;90.52;98830.22;2642218;27;20489;-75
2022/05/15 00:31:26;;;;;;;4.60;3.60;;;;;;;7.87;89.93;98823.28;2643320;27;20046;-76
2022/05/15 00:32:42;;;;;;;7.80;4.03;;;;;;;7.88;90.06;98823.22;2643448;27;20048;-79
2022/05/15 00:33:57;;;;;;;8.90;4.15;;;;;;;7.91;91.01;98828.44;2643278;27;20063;-75
2022/05/15 00:35:13;;;;;;;6.55;4.25;;;;;;;7.94;90.75;98829.28;2642168;27;20051;-76
2022/05/15 00:36:29;;;;;;;6.78;3.58;;;;;;;7.93;90.20;98830.16;2640689;27;20051;-76
2022/05/15 00:37:45;;;;;;;5.88;3.40;;;;;;;7.92;90.18;98829.28;2642612;27;20043;-76
2022/05/15 00:39:01;;;;;;;8.98;3.60;;;;;;;7.86;89.96;98829.38;2643317;27;20417;-76
2022/05/15 00:40:19;;;;;;;6.40;4.00;;;;;;;7.76;90.13;98826.84;2641901;27;20066;-76
2022/05/15 00:41:37;;;;;;;6.05;4.03;;;;;;;7.70;89.70;98824.31;2643787;27;20084;-75
2022/05/15 00:42:52;;;;;;;6.90;3.58;;;;;;;7.65;89.63;98826.09;2641012;28;20055;-76
2022/05/15 00:44:09;;;;;;;5.28;3.33;;;;;;;7.59;89.37;98828.75;2641642;27;20409;-75
2022/05/15 00:45:25;;;;;;;5.97;4.00;;;;;;;7.50;90.01;98829.72;2642171;27;20130;-76
2022/05/15 00:46:41;;;;;;;5.07;3.47;;;;;;;7.47;90.14;98824.50;2642621;27;20050;-78
2022/05/15 00:47:56;;;;;;;5.53;3.50;;;;;;;7.47;89.81;98824.50;2642652;27;20047;-78
2022/05/15 00:49:14;;;;;;;5.82;3.17;;;;;;;7.43;89.94;98818.50;2641858;27;20108;-77
2022/05/15 00:50:32;;;;;;;8.25;3.78;;;;;;;7.38;90.31;98816.78;2642006;27;20043;-79
2022/05/15 00:52:11;;;;;;;6.95;3.83;;;;;;;7.36;90.65;98827.22;2642730;27;20501;-76
2022/05/15 00:53:27;;;;;;;8.18;4.07;;;;;;;7.35;90.82;98821.16;2641037;27;20062;-76
2022/05/15 00:55:06;;;;;;;6.85;3.67;;;;;;;7.34;89.70;98823.78;2641947;27;20055;-77
2022/05/15 00:56:24;;;;;;;5.13;3.20;;;;;;;7.28;89.60;98826.44;2629608;27;20142;-76
2022/05/15 00:57:50;;;;;;;6.55;4.13;;;;;;;7.24;90.08;98822.09;2641858;27;20096;-77
2022/05/15 00:59:13;;;;;;;7.25;4.20;;;;;;;7.21;90.69;98829.06;2642998;27;20087;-76
2022/05/15 01:00:31;;;;;;;5.30;3.53;;;;;;;7.15;90.72;98823.94;2640969;27;20047;-76
2022/05/15 01:01:47;;;;;;;6.57;4.10;;;;;;;7.10;90.54;98822.22;2641839;27;20077;-77
2022/05/15 01:03:12;;;;;;;5.50;3.85;;;;;;;7.06;90.98;98824.00;2641586;27;20557;-77
2022/05/15 01:04:31;;;;;;;5.20;3.80;;;;;;;7.00;91.29;98824.06;2642026;27;20121;-76
2022/05/15 01:05:49;;;;;;;6.38;3.83;;;;;;;6.98;91.64;98829.25;2643988;27;20398;-76
2022/05/15 01:07:05;;;;;;;6.05;4.18;;;;;;;6.98;91.73;98824.06;2641324;28;20440;-76
2022/05/15 01:08:22;;;;;;;5.75;4.20;;;;;;;7.02;90.86;98830.94;2640011;28;20243;-76
2022/05/15 01:09:38;;;;;;;7.45;3.85;;;;;;;6.98;90.93;98831.84;2641522;27;20353;-78
2022/05/15 01:10:56;;;;;;;7.88;4.20;;;;;;;7.02;90.68;98830.94;2641997;27;20043;-77
2022/05/15 01:12:13;;;;;;;6.35;3.88;;;;;;;7.02;90.80;98830.09;2643003;27;20686;-79
2022/05/15 01:13:34;;;;;;;6.30;3.92;;;;;;;6.97;90.30;98824.06;2642236;27;20145;-77
2022/05/15 01:14:50;;;;;;;8.00;3.38;;;;;;;6.95;90.58;98831.00;2642879;27;20074;-77
2022/05/15 01:16:06;;;;;;;7.85;3.92;;;;;;;6.91;90.78;98825.84;2640598;28;20098;-76
2022/05/15 01:17:22;;;;;;;5.13;3.80;;;;;;;6.84;90.94;98828.50;2641269;28;20142;-76
2022/05/15 01:18:39;;;;;;;7.47;4.28;;;;;;;6.81;91.24;98828.50;2643333;28;20286;-76
2022/05/15 01:20:04;;;;;;;8.90;3.53;;;;;;;6.83;91.20;98829.38;2640969;28;20051;-77
2022/05/15 01:21:31;;;;;;;5.88;3.92;;;;;;;6.90;91.12;98824.09;2642664;28;20081;-79
2022/05/15 01:22:47;;;;;;;4.38;3.65;;;;;;;6.96;91.49;98827.53;2643417;28;20051;-76
2022/05/15 01:24:05;;;;;;;7.75;3.85;;;;;;;6.88;91.18;98823.25;2641992;28;20075;-76
2022/05/15 01:25:28;;;;;;;7.28;3.85;;;;;;;6.73;92.13;98826.81;2643166;28;20043;-76
2022/05/15 01:26:45;;;;;;;5.25;4.00;;;;;;;6.72;92.64;98824.25;2641467;28;20054;-76
2022/05/15 01:28:02;;;;;;;7.18;4.15;;;;;;;6.67;93.11;98825.97;2641312;28;20048;-76
2022/05/15 01:29:29;;;;;;;5.47;3.88;;;;;;;6.73;92.86;98825.97;2641627;28;20062;-76
2022/05/15 01:30:49;;;;;;;8.07;3.90;;;;;;;6.73;92.16;98828.56;2643889;28;20187;-76
2022/05/15 01:32:05;;;;;;;5.40;3.65;;;;;;;6.72;92.13;98830.28;2640650;28;20413;-79
2022/05/15 01:33:21;;;;;;;6.45;3.72;;;;;;;6.73;91.26;98825.97;2641652;28;20134;-76
2022/05/15 01:34:36;;;;;;;5.90;4.20;;;;;;;6.72;90.89;98832.03;2641258;28;20051;-77
2022/05/15 01:35:52;;;;;;;5.32;3.70;;;;;;;6.70;90.76;98833.75;2643564;28;20051;-77
2022/05/15 01:37:09;;;;;;;5.60;3.83;;;;;;;6.67;90.80;98832.06;2641032;28;20055;-78
2022/05/15 01:38:24;;;;;;;6.40;4.00;;;;;;;6.70;90.93;98837.25;2642836;28;20062;-77
2022/05/15 01:39:40;;;;;;;5.63;3.83;;;;;;;6.68;90.96;98831.19;2642457;28;20051;-76
2022/05/15 01:40:55;;;;;;;7.28;4.43;;;;;;;6.67;91.16;98828.59;2642881;28;20059;-76
2022/05/15 01:42:11;;;;;;;5.63;3.70;;;;;;;6.61;92.01;98830.34;2640818;28;20124;-76
2022/05/15 01:43:27;;;;;;;5.40;3.90;;;;;;;6.58;92.31;98835.59;2643213;28;20043;-76
2022/05/15 01:44:42;;;;;;;6.53;3.97;;;;;;;6.56;91.90;98839.06;2643086;27;20593;-76
2022/05/15 01:45:58;;;;;;;9.13;4.78;;;;;;;6.50;92.56;98840.84;2644990;27;20051;-76
2022/05/15 01:47:15;;;;;;;5.90;4.07;;;;;;;6.43;92.06;98843.47;2643622;27;20206;-76
2022/05/15 01:48:30;;;;;;;6.18;4.45;;;;;;;6.34;92.05;98841.75;2645049;27;20051;-77
2022/05/15 01:49:46;;;;;;;6.30;4.47;;;;;;;6.32;91.84;98840.91;2645324;27;20050;-77
2022/05/15 01:51:02;;;;;;;7.03;3.67;;;;;;;6.34;91.85;98841.75;2644124;27;20043;-78
2022/05/15 01:52:18;;;;;;;4.85;3.72;;;;;;;6.35;91.22;98836.56;2643919;27;20098;-78
2022/05/15 01:53:34;;;;;;;6.32;4.15;;;;;;;6.32;91.76;98841.78;2642412;27;20399;-75
2022/05/15 01:54:49;;;;;;;5.90;4.07;;;;;;;6.30;90.96;98838.31;2644693;27;20130;-76
2022/05/15 01:56:05;;;;;;;6.15;3.65;;;;;;;6.27;91.47;98840.91;2642870;27;20600;-78
2022/05/15 01:57:21;;;;;;;5.68;3.85;;;;;;;6.27;91.35;98838.31;2643444;27;20048;-76
2022/05/15 01:58:37;;;;;;;5.55;3.60;;;;;;;6.27;90.88;98838.31;2644719;27;20039;-75
2022/05/15 01:59:52;;;;;;;4.70;3.80;;;;;;;6.28;91.22;98841.78;2644218;27;20112;-78
2022/05/15 02:01:08;;;;;;;8.35;3.67;;;;;;;6.26;90.62;98840.94;2645082;27;20047;-76
2022/05/15 02:02:24;;;;;;;6.95;4.00;;;;;;;6.20;91.51;98837.47;2643020;27;20066;-82
2022/05/15 02:03:39;;;;;;;6.95;4.43;;;;;;;6.18;91.77;98835.78;2644385;27;20051;-76
2022/05/15 02:04:55;;;;;;;5.20;3.78;;;;;;;6.19;91.69;98843.53;2642852;27;20061;-77
2022/05/15 02:06:11;;;;;;;7.18;4.10;;;;;;;6.20;91.66;98839.22;2643000;27;20043;-76
2022/05/15 02:07:26;;;;;;;6.20;3.67;;;;;;;6.16;91.90;98843.56;2644406;27;20557;-78
2022/05/15 02:08:42;;;;;;;7.82;4.00;;;;;;;6.18;92.43;98835.78;2644887;27;20055;-77
2022/05/15 02:09:58;;;;;;;6.50;4.03;;;;;;;6.14;92.98;98829.72;2634168;28;20192;-78
2022/05/15 02:11:14;;;;;;;6.60;4.20;;;;;;;6.15;93.00;98836.63;2636432;27;20097;-78
2022/05/15 02:12:30;;;;;;;7.70;4.43;;;;;;;6.16;92.66;98840.97;2642713;27;20055;-78
2022/05/15 02:13:46;;;;;;;6.65;4.40;;;;;;;6.16;93.34;98829.72;2643180;27;20043;-78
2022/05/15 02:15:03;;;;;;;5.78;4.00;;;;;;;6.18;92.81;98840.97;2646008;27;20081;-75
2022/05/15 02:16:19;;;;;;;5.32;4.13;;;;;;;6.18;92.83;98838.38;2643205;27;20421;-75
2022/05/15 02:17:35;;;;;;;6.10;4.07;;;;;;;6.19;92.52;98829.69;2645519;27;20074;-76
2022/05/15 02:18:50;;;;;;;6.75;3.95;;;;;;;6.22;92.15;98835.75;2643865;27;20390;-78
2022/05/15 02:20:07;;;;;;;7.53;4.18;;;;;;;6.22;91.91;98833.16;2643852;27;20090;-77
2022/05/15 02:21:23;;;;;;;6.25;3.85;;;;;;;6.20;92.83;98834.03;2643582;27;20051;-76
2022/05/15 02:22:40;;;;;;;8.15;4.50;;;;;;;6.19;91.74;98833.16;2634532;28;20394;-77
2022/05/15 02:23:57;;;;;;;6.50;3.95;;;;;;;6.19;92.44;98837.50;2636787;27;20044;-76
2022/05/15 02:25:14;;;;;;;5.78;3.97;;;;;;;6.17;91.87;98837.50;2644629;27;20067;-77
2022/05/15 02:26:29;;;;;;;8.27;4.13;;;;;;;6.16;91.65;98834.91;2644289;27;20493;-76
2022/05/15 02:27:46;;;;;;;5.70;4.03;;;;;;;6.14;91.28;98836.63;2643051;27;20047;-79
2022/05/15 02:29:02;;;;;;;5.53;3.70;;;;;;;6.11;91.36;98836.66;2644405;27;20051;-76
2022/05/15 02:30:18;;;;;;;5.80;3.92;;;;;;;6.07;91.15;98834.06;2642980;27;20079;-76
2022/05/15 02:31:34;;;;;;;5.63;4.05;;;;;;;6.05;90.80;98833.22;2644249;27;20044;-79
2022/05/15 02:32:50;;;;;;;6.00;4.25;;;;;;;6.08;91.29;98834.94;2643002;27;20458;-78
2022/05/15 02:34:06;;;;;;;6.05;4.13;;;;;;;6.10;91.47;98837.53;2643747;27;20096;-78
2022/05/15 02:35:21;;;;;;;5.65;4.15;;;;;;;6.01;91.40;98836.69;2645681;27;20042;-78
2022/05/15 02:36:37;;;;;;;5.80;4.00;;;;;;;6.00;91.60;98837.50;2642392;27;20048;-75
2022/05/15 02:37:53;;;;;;;5.78;4.05;;;;;;;5.98;91.92;98839.25;2644824;27;20078;-75
2022/05/15 02:39:09;;;;;;;7.43;4.68;;;;;;;5.95;92.73;98836.66;2644839;27;20074;-75
2022/05/15 02:40:25;;;;;;;7.93;4.30;;;;;;;5.91;94.03;98833.19;2642793;27;20485;-76
2022/05/15 02:41:40;;;;;;;8.45;4.55;;;;;;;5.92;95.62;98840.13;2642086;27;20055;-78
2022/05/15 02:42:56;;;;;;;4.60;4.00;;;;;;;5.92;95.79;98836.69;2643188;27;20058;-75
2022/05/15 02:44:12;;;;;;;5.57;3.92;;;;;;;5.94;94.24;98834.94;2644081;27;20047;-76
2022/05/15 02:45:27;;;;;;;8.55;4.13;;;;;;;5.88;94.85;98835.81;2643287;27;20043;-75
2022/05/15 02:46:43;;;;;;;8.85;4.05;;;;;;;5.88;94.94;98842.75;2645807;27;20085;-75
2022/05/15 02:47:59;;;;;;;4.82;3.63;;;;;;;5.82;94.74;98832.38;2645159;27;20096;-76
2022/05/15 02:51:21;;;;;;;8.55;4.70;;;;;;;5.77;95.34;98843.66;2642345;27;20420;-75
2022/05/15 02:52:30;;;;;;;6.03;4.18;;;;;;;5.83;94.20;98839.28;2640828;27;20788;-76
2022/05/15 02:53:46;;;;;;;6.25;4.45;;;;;;;5.85;94.50;98835.84;2643358;27;20091;-76
2022/05/15 02:55:02;;;;;;;6.15;4.22;;;;;;;5.84;93.85;98843.63;2645891;27;20508;-76
2022/05/15 02:56:19;;;;;;;8.98;4.70;;;;;;;5.87;94.53;98839.28;2641690;27;20052;-75
2022/05/15 02:57:38;;;;;;;7.95;4.70;;;;;;;5.85;94.50;98835.84;2645599;27;20409;-75
2022/05/15 02:58:54;;;;;;;7.30;4.28;;;;;;;5.83;94.49;98840.16;2643940;27;20047;-75
2022/05/15 03:00:11;;;;;;;6.63;4.05;;;;;;;5.84;93.66;98844.50;2644553;27;20056;-76
2022/05/15 03:01:27;;;;;;;7.07;4.25;;;;;;;5.73;93.99;98849.72;2643028;27;20468;-76
2022/05/15 03:02:42;;;;;;;6.32;4.25;;;;;;;5.69;93.56;98844.53;2642321;27;20048;-76
2022/05/15 03:03:58;;;;;;;6.88;4.57;;;;;;;5.62;94.17;98835.88;2643935;27;20075;-79
2022/05/15 03:05:16;;;;;;;6.22;4.20;;;;;;;5.59;93.94;98846.28;2644299;27;20058;-78
2022/05/15 03:06:32;;;;;;;7.07;4.50;;;;;;;5.59;94.28;98844.53;2644717;27;20061;-78
2022/05/15 03:07:48;;;;;;;8.05;4.78;;;;;;;5.63;94.64;98842.81;2642289;27;20085;-77
2022/05/15 03:09:04;;;;;;;9.05;5.30;;;;;;;5.69;95.50;98849.72;2644657;27;20058;-78
2022/05/15 03:10:21;;;;;;;7.88;4.53;;;;;;;5.64;96.40;98841.94;2642470;27;20553;-76
2022/05/15 03:11:38;;;;;;;7.90;4.82;;;;;;;5.65;95.56;98847.09;2643797;27;20047;-76
2022/05/15 03:12:53;;;;;;;7.18;4.30;;;;;;;5.64;95.22;98841.94;2643849;27;20402;-76
2022/05/15 03:14:09;;;;;;;6.57;4.28;;;;;;;5.65;94.33;98852.31;2643447;27;20074;-76
2022/05/15 03:15:25;;;;;;;6.82;4.45;;;;;;;5.64;94.22;98844.53;2643374;27;20459;-76
2022/05/15 03:16:41;;;;;;;6.82;4.25;;;;;;;5.59;94.95;98844.53;2645253;27;20456;-76
2022/05/15 03:17:56;;;;;;;8.40;4.85;;;;;;;5.58;96.10;98852.31;2643117;27;20083;-77
2022/05/15 03:19:12;;;;;;;8.23;4.35;;;;;;;5.60;95.78;98854.06;2641560;27;20313;-77
2022/05/15 03:20:28;;;;;;;6.47;4.60;;;;;;;5.50;95.54;98857.53;2642253;27;20627;-79
2022/05/15 03:21:43;;;;;;;6.75;4.45;;;;;;;5.50;99.32;98854.94;2642393;27;20039;-76
2022/05/15 03:22:59;;;;;;;7.78;4.70;;;;;;;5.54;97.50;98859.28;2643745;27;20576;-77
2022/05/15 03:24:15;;;;;;;6.72;4.70;;;;;;;5.53;97.20;98856.66;2642122;27;20568;-76
2022/05/15 03:25:33;;;;;;;7.60;4.50;;;;;;;5.58;97.66;98861.00;2644400;27;20047;-75
2022/05/15 03:26:49;;;;;;;6.35;4.35;;;;;;;5.64;97.34;98860.13;2642024;27;20075;-78
2022/05/15 03:28:09;;;;;;;6.47;4.15;;;;;;;5.65;96.42;98854.91;2643916;27;20050;-78
2022/05/15 03:29:25;;;;;;;9.05;4.20;;;;;;;5.66;96.11;98855.78;2643426;27;20486;-79
2022/05/15 03:30:43;;;;;;;9.00;4.40;;;;;;;5.70;95.98;98859.25;2644212;27;20070;-76
2022/05/15 03:31:59;;;;;;;6.75;4.30;;;;;;;5.73;95.85;98854.03;2644068;27;20500;-76
2022/05/15 03:33:15;;;;;;;6.28;4.55;;;;;;;5.76;95.88;98856.63;2642943;27;20379;-76
2022/05/15 03:34:30;;;;;;;4.90;4.20;;;;;;;5.76;95.03;98857.50;2644067;27;20050;-76
2022/05/15 03:35:46;;;;;;;9.55;4.50;;;;;;;5.74;94.61;98856.66;2643333;27;20047;-77
2022/05/15 03:37:02;;;;;;;10.13;4.93;;;;;;;5.77;94.91;98858.34;2641712;27;20130;-76
2022/05/15 03:38:18;;;;;;;7.35;4.15;;;;;;;5.74;94.69;98859.25;2641735;27;20124;-81
2022/05/15 03:39:34;;;;;;;5.82;4.35;;;;;;;5.76;94.53;98861.81;2641992;27;20058;-77
2022/05/15 03:40:49;;;;;;;10.48;4.60;;;;;;;5.76;94.54;98862.72;2643142;27;20047;-76
2022/05/15 03:42:05;;;;;;;6.75;3.85;;;;;;;5.78;95.06;98860.97;2631704;28;20047;-76
2022/05/15 03:43:20;;;;;;;5.57;4.03;;;;;;;5.82;94.85;98866.16;2637573;27;20046;-79
2022/05/15 03:44:37;;;;;;;6.63;4.60;;;;;;;5.84;94.78;98859.22;2645260;27;20546;-76
2022/05/15 03:45:53;;;;;;;9.43;4.30;;;;;;;5.87;95.03;98861.81;2641894;27;20056;-78
2022/05/15 03:47:08;;;;;;;6.82;4.22;;;;;;;5.90;95.78;98859.22;2642790;27;20062;-76
2022/05/15 03:48:24;;;;;;;6.60;4.50;;;;;;;5.92;95.85;98860.91;2642941;27;20071;-76
2022/05/15 03:49:40;;;;;;;7.45;4.50;;;;;;;5.90;96.22;98864.41;2644805;27;20078;-76
2022/05/15 03:50:55;;;;;;;7.90;4.25;;;;;;;5.87;95.67;98860.06;2642425;27;20070;-76
2022/05/15 03:52:11;;;;;;;5.82;4.10;;;;;;;5.85;95.09;98860.94;2643685;27;20070;-76
2022/05/15 03:53:27;;;;;;;6.38;4.13;;;;;;;5.81;95.39;98867.91;2643134;27;20043;-82
2022/05/15 03:54:44;;;;;;;6.13;4.05;;;;;;;5.80;95.41;98863.56;2644093;27;20079;-76
2022/05/15 03:56:02;;;;;;;7.10;4.13;;;;;;;5.76;95.53;98862.72;2632171;28;20047;-76
2022/05/15 03:57:19;;;;;;;8.32;4.45;;;;;;;5.70;96.90;98867.88;2636499;27;20541;-76
2022/05/15 03:58:37;;;;;;;8.00;4.45;;;;;;;5.73;96.92;98869.63;2642151;27;20043;-78
2022/05/15 03:59:52;;;;;;;7.15;4.55;;;;;;;5.67;97.38;98872.25;2644901;27;20055;-75
2022/05/15 04:01:08;;;;;;;7.65;4.75;;;;;;;5.65;97.78;98869.66;2642427;27;20049;-77
2022/05/15 04:02:24;;;;;;;9.43;4.93;;;;;;;5.62;98.33;98874.84;2643379;27;20055;-75
2022/05/15 04:03:39;;;;;;;6.97;4.70;;;;;;;5.66;98.82;98871.38;2642552;27;20431;-78
2022/05/15 04:04:55;;;;;;;6.22;4.50;;;;;;;5.65;97.81;98873.09;2643396;27;20061;-76
2022/05/15 04:06:11;;;;;;;5.47;4.68;;;;;;;5.68;98.12;98876.56;2642559;27;20455;-75
2022/05/15 04:07:27;;;;;;;6.45;4.35;;;;;;;5.61;99.99;98881.75;2642226;27;20056;-75
2022/05/15 04:08:42;;;;;;;7.47;4.97;;;;;;;5.64;100.00;98880.91;2641110;27;20064;-75
2022/05/15 04:09:58;;;;;;;8.02;5.03;;;;;;;5.69;100.00;98876.56;2644231;27;20134;-78
2022/05/15 04:11:13;;;;;;;7.70;5.22;;;;;;;5.69;100.00;98876.56;2641577;27;20432;-78
2022/05/15 04:12:29;;;;;;;10.50;5.22;;;;;;;5.74;99.85;98879.16;2642598;27;20044;-79
2022/05/15 04:13:44;;;;;;;6.30;4.95;;;;;;;5.80;99.90;98879.16;2641912;27;20051;-77
2022/05/15 04:15:00;;;;;;;9.35;4.95;;;;;;;5.82;99.48;98877.41;2641842;27;20408;-77
2022/05/15 04:16:16;;;;;;;7.07;5.30;;;;;;;5.85;100.00;98879.13;2641035;27;20304;-78
2022/05/15 04:17:31;;;;;;;7.50;5.00;;;;;;;5.85;100.00;98882.59;2642637;27;20043;-77
2022/05/15 04:18:47;;;;;;;6.90;5.05;;;;;;;5.89;100.00;98886.91;2641378;27;20055;-77
2022/05/15 04:20:04;;;;;;;9.63;5.53;;;;;;;5.86;100.00;98878.25;2641047;27;20127;-77
2022/05/15 04:21:19;;;;;;;9.15;5.50;;;;;;;5.86;100.00;98879.13;2644627;27;20482;-77
2022/05/15 04:22:35;;;;;;;7.93;5.43;;;;;;;5.98;100.00;98883.44;2643130;27;20043;-78
2022/05/15 04:23:51;;;;;;;9.52;5.55;;;;;;;6.00;100.00;98889.50;2640748;27;20055;-77
2022/05/15 04:25:07;;;;;;;9.48;5.43;;;;;;;6.02;100.00;98877.41;2641651;27;20062;-75
2022/05/15 04:26:23;;;;;;;9.80;5.78;;;;;;;6.05;100.00;98890.41;2640822;27;20077;-81
2022/05/15 04:27:40;;;;;;;6.93;5.05;;;;;;;6.07;100.00;98880.84;2643945;27;20043;-78
2022/05/15 04:28:56;;;;;;;8.15;5.10;;;;;;;6.10;100.00;98881.72;2642116;27;20047;-77
2022/05/15 04:30:14;;;;;;;8.10;5.57;;;;;;;6.13;100.00;98877.38;2642828;27;20035;-75
2022/05/15 04:31:30;;;;;;;7.40;5.57;;;;;;;6.16;100.00;98879.97;2641207;27;20499;-76
2022/05/15 04:32:46;;;;;;;8.35;5.70;;;;;;;6.17;100.00;98878.25;2643530;27;20081;-75
2022/05/15 04:34:02;;;;;;;6.82;5.43;;;;;;;6.20;100.00;98884.28;2642960;27;20510;-76
2022/05/15 04:35:20;;;;;;;10.15;5.53;;;;;;;6.24;100.00;98879.94;2642452;27;20090;-77
2022/05/15 04:36:36;;;;;;;10.70;5.80;;;;;;;6.27;100.00;98879.91;2641211;27;20054;-79
2022/05/15 04:37:51;;;;;;;10.30;5.07;;;;;;;6.33;100.00;98884.22;2641908;27;20137;-74
2022/05/15 04:39:07;;;;;;;8.75;5.70;;;;;;;6.32;100.00;98885.09;2641244;27;20043;-74
2022/05/15 04:40:23;;;;;;;9.73;5.47;;;;;;;6.36;100.00;98882.50;2642222;27;20436;-74
2022/05/15 04:41:38;;;;;;;8.45;5.63;;;;;;;6.40;100.00;98880.75;2641018;27;20054;-74
2022/05/15 04:42:55;;;;;;;8.95;5.47;;;;;;;6.49;100.00;98887.66;2641009;27;20055;-77
2022/05/15 04:44:11;;;;;;;8.40;5.35;;;;;;;6.81;100.00;98890.97;2642207;27;20051;-76
2022/05/15 04:45:27;;;;;;;7.28;5.22;;;;;;;6.93;100.00;98890.91;2641879;27;20583;-75
2022/05/15 04:46:43;;;;;;;7.28;5.32;;;;;;;6.97;100.00;98883.91;2640947;27;20051;-75
2022/05/15 04:47:58;;;;;;;8.70;5.45;;;;;;;7.12;100.00;98889.03;2641923;27;20118;-75
2022/05/15 04:49:14;;;;;;;8.95;5.40;;;;;;;7.25;100.00;98891.56;2643360;27;20108;-74
2022/05/15 04:50:29;;;;;;;10.55;5.60;;;;;;;7.33;100.00;98889.75;2641257;27;20169;-77
2022/05/15 04:51:45;;;;;;;7.63;4.90;;;;;;;7.30;100.00;98887.19;2643841;27;20043;-74
2022/05/15 04:53:00;;;;;;;10.00;5.25;;;;;;;7.36;99.49;98889.72;2641446;27;20054;-75
2022/05/15 04:54:16;;;;;;;9.80;4.88;;;;;;;7.38;99.59;98890.59;2640868;27;20043;-74
2022/05/15 04:55:32;;;;;;;7.38;5.35;;;;;;;7.43;98.93;98896.66;2640820;27;20624;-75
2022/05/15 04:56:47;;;;;;;8.30;5.43;;;;;;;7.52;97.96;98885.28;2642675;27;20051;-75
2022/05/15 04:58:03;;;;;;;8.02;5.43;;;;;;;7.63;97.33;98886.06;2643242;27;20043;-77
2022/05/15 04:59:19;;;;;;;7.13;4.97;;;;;;;7.70;96.50;98883.38;2640824;27;20054;-77
2022/05/15 05:00:35;;;;;;;8.15;4.80;;;;;;;7.72;97.51;98886.84;2642495;27;20050;-76
2022/05/15 05:01:50;;;;;;;7.47;5.10;;;;;;;7.63;98.86;98885.19;2643078;27;20553;-74
2022/05/15 05:03:06;;;;;;;8.48;5.53;;;;;;;7.65;97.85;98879.97;2642639;27;20050;-74
2022/05/15 05:04:21;;;;;;;11.30;5.43;;;;;;;7.64;98.75;98884.28;2644312;27;20043;-77
2022/05/15 05:05:37;;;;;;;11.52;5.47;;;;;;;7.71;98.48;98885.09;2642980;27;20063;-77
2022/05/15 05:06:53;;;;;;;7.18;5.28;;;;;;;7.70;98.35;98883.38;2643281;27;20347;-76
2022/05/15 05:08:10;;;;;;;7.82;4.93;;;;;;;7.76;98.21;98884.19;2641564;27;20086;-77
2022/05/15 05:09:26;;;;;;;7.78;4.82;;;;;;;7.83;97.57;98886.75;2643796;27;20053;-77
2022/05/15 05:10:41;;;;;;;6.85;4.95;;;;;;;7.82;98.35;98888.47;2641715;27;20046;-76
2022/05/15 05:11:57;;;;;;;7.93;4.85;;;;;;;8.01;97.20;98891.78;2629624;28;20070;-75
2022/05/15 05:13:13;;;;;;;8.25;5.30;;;;;;;8.03;97.83;98897.84;2635540;27;20531;-76
2022/05/15 05:14:28;;;;;;;9.38;5.25;;;;;;;7.93;98.11;98895.34;2640851;27;20051;-77
2022/05/15 05:15:44;;;;;;;7.40;5.20;;;;;;;7.93;98.47;98893.56;2642556;27;20051;-76
2022/05/15 05:17:00;;;;;;;8.43;5.57;;;;;;;7.99;98.41;98890.06;2640651;27;20051;-74
2022/05/15 05:18:17;;;;;;;9.70;5.45;;;;;;;8.04;98.64;98894.34;2640966;27;20069;-75
2022/05/15 05:19:33;;;;;;;9.85;5.47;;;;;;;8.05;97.96;98890.84;2640826;27;20066;-75
2022/05/15 05:20:49;;;;;;;6.22;4.90;;;;;;;7.95;98.74;98893.56;2640535;27;20043;-76
2022/05/15 05:22:05;;;;;;;7.25;4.85;;;;;;;7.99;98.46;98890.94;2641218;28;20043;-75
2022/05/15 05:23:21;;;;;;;6.82;4.90;;;;;;;8.03;98.67;98894.34;2642148;28;20127;-75
2022/05/15 05:24:36;;;;;;;7.88;5.50;;;;;;;8.09;98.53;98902.13;2641885;28;20040;-74
2022/05/15 05:25:52;;;;;;;9.60;5.07;;;;;;;8.13;98.63;98895.13;2630532;28;20207;-79
2022/05/15 05:27:08;;;;;;;9.52;5.20;;;;;;;8.19;98.18;98897.66;2629420;28;20486;-75
2022/05/15 05:28:24;;;;;;;6.13;4.95;;;;;;;8.28;97.37;98899.31;2640328;28;20090;-75
2022/05/15 05:29:40;;;;;;;6.47;5.13;;;;;;;8.35;98.09;98903.59;2640605;28;20050;-75
2022/05/15 05:30:56;;;;;;;8.43;5.85;;;;;;;8.43;98.16;98904.34;2641585;28;20789;-75
2022/05/15 05:32:11;;;;;;;8.02;5.30;;;;;;;8.42;97.70;98900.00;2639738;28;20076;-74
2022/05/15 05:33:27;;;;;;;7.75;5.03;;;;;;;8.54;97.87;98906.00;2640237;28;20048;-74
2022/05/15 05:34:42;;;;;;;10.90;5.70;;;;;;;8.51;97.88;98906.03;2640445;28;20075;-77
2022/05/15 05:35:58;;;;;;;9.57;5.72;;;;;;;8.53;98.87;98907.75;2640413;28;20108;-74
2022/05/15 05:37:17;;;;;;;8.35;5.80;;;;;;;8.67;98.79;98907.56;2641224;28;20054;-75
2022/05/15 05:38:36;;;;;;;10.10;5.45;;;;;;;8.74;96.84;98906.63;2641028;28;20125;-77
2022/05/15 05:39:51;;;;;;;7.93;5.43;;;;;;;8.76;96.10;98904.84;2641053;28;20052;-74
2022/05/15 05:41:07;;;;;;;7.97;5.40;;;;;;;8.85;96.42;98898.66;2642930;28;20066;-74
2022/05/15 05:42:23;;;;;;;7.10;5.90;;;;;;;8.91;96.02;98905.53;2640442;28;20054;-75
2022/05/15 05:43:39;;;;;;;10.55;5.57;;;;;;;8.97;97.52;98909.81;2640410;28;20047;-75
2022/05/15 05:44:54;;;;;;;7.45;5.18;;;;;;;8.96;98.21;98906.31;2641158;28;20218;-76
2022/05/15 05:46:10;;;;;;;10.95;5.63;;;;;;;8.99;96.38;98901.03;2641117;28;20087;-77
2022/05/15 05:47:26;;;;;;;7.47;5.60;;;;;;;9.02;96.52;98902.75;2641463;28;20050;-77
2022/05/15 05:48:45;;;;;;;8.40;5.60;;;;;;;9.11;96.08;98904.38;2640790;28;20055;-76
2022/05/15 05:50:01;;;;;;;8.63;5.50;;;;;;;9.25;95.39;98905.03;2640800;28;20046;-74
2022/05/15 05:51:17;;;;;;;12.18;5.30;;;;;;;9.27;93.57;98900.63;2641050;28;20059;-77
2022/05/15 05:52:33;;;;;;;11.20;5.40;;;;;;;9.37;96.01;98901.38;2642408;28;20059;-76
2022/05/15 05:53:48;;;;;;;11.25;6.50;;;;;;;9.43;94.96;98905.66;2642379;28;20085;-77
2022/05/15 05:55:04;;;;;;;10.85;5.43;;;;;;;9.45;95.52;98898.66;2631563;28;20489;-76
2022/05/15 05:56:20;;;;;;;9.15;5.50;;;;;;;9.51;95.00;98902.91;2633844;28;20496;-79
2022/05/15 05:57:37;;;;;;;9.18;5.25;;;;;;;9.51;94.74;98909.00;2640522;28;20043;-77
2022/05/15 05:58:53;;;;;;;7.65;5.28;;;;;;;9.67;94.03;98907.00;2640724;28;20066;-74
2022/05/15 06:00:14;;;;;;;10.43;5.30;;;;;;;9.72;92.95;98906.94;2641835;28;20397;-75
2022/05/15 06:01:30;;;;;;;8.60;5.55;;;;;;;9.79;93.94;98902.47;2642168;27;20096;-74
2022/05/15 06:02:46;;;;;;;7.03;4.63;;;;;;;9.88;93.00;98905.75;2639687;28;20482;-75
2022/05/15 06:05:35;;;;;;;10.48;5.45;;;;;;;10.04;92.27;98903.72;2641814;28;20096;-75
2022/05/15 06:06:51;;;;;;;8.02;5.05;;;;;;;10.11;91.68;98901.00;2641698;28;20043;-75